Time;durP1;ratioP1;P1;durP2;ratioP2;P2;SDS_P1;SDS_P2;PMS_P1;PMS_P2;Temp;Humidity;BMP_temperature;BMP_pressure;BME280_temperature;BME280_humidity;BME280_pressure;Samples;Min_cycle;Max_cycle;Signal;HPM_P1;HPM_P2
2023/03/26 00:01:59;;;;;;;1.50;1.40;;;;;;;9.52;53.19;99233.91;7632839;32;37495;-86
2023/03/26 00:06:16;;;;;;;1.40;1.30;;;;;;;9.29;53.26;99240.78;7633414;32;37110;-85
2023/03/26 00:10:32;;;;;;;1.50;1.40;;;;;;;8.34;56.14;99255.00;7633111;32;40221;-86
2023/03/26 00:14:50;;;;;;;1.73;1.60;;;;;;;8.29;56.78;99258.50;7632408;32;40875;-86
2023/03/26 00:19:06;;;;;;;1.50;1.40;;;;;;;8.39;56.35;99249.56;7633074;32;37818;-85
2023/03/26 00:23:23;;;;;;;3.00;1.50;;;;;;;8.37;56.61;99257.16;7632969;32;36777;-86
2023/03/26 00:27:40;;;;;;;1.58;1.40;;;;;;;8.70;55.76;99257.75;7632662;32;39413;-84
2023/03/26 00:31:56;;;;;;;1.90;1.80;;;;;;;7.78;58.15;99264.63;7632997;32;41190;-85
2023/03/26 00:36:16;;;;;;;2.53;1.58;;;;;;;8.03;57.90;99252.22;7632872;32;37721;-85
2023/03/26 00:40:35;;;;;;;4.82;1.60;;;;;;;8.39;56.90;99255.00;7633013;32;37079;-86
2023/03/26 00:44:56;;;;;;;1.50;1.40;;;;;;;8.39;57.04;99255.00;7632925;32;39373;-85
2023/03/26 00:49:13;;;;;;;1.90;1.70;;;;;;;8.06;58.18;99252.50;7632899;32;40055;-86
2023/03/26 00:53:30;;;;;;;1.77;1.67;;;;;;;7.75;58.82;99243.47;7632630;32;38624;-84
2023/03/26 00:57:47;;;;;;;2.00;1.50;;;;;;;8.08;58.03;99249.50;7632464;32;36738;-86
2023/03/26 01:02:03;;;;;;;1.87;1.50;;;;;;;8.20;57.57;99241.13;7632778;32;39898;-86
2023/03/26 01:06:26;;;;;;;1.98;1.77;;;;;;;8.09;58.00;99241.09;7632579;32;40100;-85
2023/03/26 01:10:49;;;;;;;2.22;1.40;;;;;;;7.60;59.44;99249.62;7632555;32;37649;-86
2023/03/26 01:15:07;;;;;;;1.80;1.70;;;;;;;8.33;57.05;99239.75;7630633;32;37277;-85
2023/03/26 01:20:05;;;;;;;1.55;1.45;;;;;;;8.23;56.88;99235.16;7631404;32;39100;-86
2023/03/26 01:24:22;;;;;;;2.95;1.70;;;;;;;8.53;56.05;99228.94;7627230;32;39725;-87
2023/03/26 01:28:40;;;;;;;2.37;1.73;;;;;;;8.81;55.22;99226.75;7632294;32;37933;-86
2023/03/26 01:33:12;;;;;;;1.67;1.58;;;;;;;8.78;54.68;99221.88;7632332;32;37203;-86
2023/03/26 01:38:22;;;;;;;1.47;1.37;;;;;;;8.26;56.79;99229.16;7631359;32;39068;-86
2023/03/26 01:42:53;;;;;;;1.70;1.60;;;;;;;8.59;55.45;99206.13;7576201;33;39688;-86
2023/03/26 01:47:11;;;;;;;1.92;1.50;;;;;;;8.65;55.00;99194.16;7598886;32;37488;-86
2023/03/26 01:51:33;;;;;;;1.60;1.50;;;;;;;8.87;54.33;99206.63;7630940;32;37151;-86
2023/03/26 01:55:54;;;;;;;1.70;1.60;;;;;;;8.23;56.87;99208.81;7631553;32;40992;-86
2023/03/26 02:00:24;;;;;;;2.12;1.90;;;;;;;8.15;57.23;99211.25;7632095;32;39213;-86
2023/03/26 02:04:52;;;;;;;1.67;1.58;;;;;;;7.76;59.13;99220.69;7631866;32;38655;-87
2023/03/26 02:09:13;;;;;;;1.67;1.58;;;;;;;8.02;58.00;99223.44;7631935;32;36463;-86
2023/03/26 02:13:30;;;;;;;1.60;1.50;;;;;;;8.13;57.15;99224.28;7615637;32;39292;-86
2023/03/26 02:17:51;;;;;;;2.05;1.73;;;;;;;8.56;55.49;99217.53;7605711;32;40590;-85
2023/03/26 02:22:14;;;;;;;2.35;1.80;;;;;;;8.76;54.57;99218.59;7605225;32;36821;-87
2023/03/26 02:26:32;;;;;;;4.25;2.40;;;;;;;8.87;54.11;99209.34;7604363;32;37049;-86
2023/03/26 02:30:49;;;;;;;5.45;2.47;;;;;;;8.95;53.70;99211.53;7616441;32;38288;-86
2023/03/26 02:35:05;;;;;;;4.80;2.30;;;;;;;9.06;53.17;99208.78;7605209;32;39816;-86
2023/03/26 02:39:22;;;;;;;3.90;2.20;;;;;;;9.16;52.67;99208.75;7605106;32;38604;-87
2023/03/26 02:43:38;;;;;;;2.37;2.03;;;;;;;9.34;51.95;99199.16;7605110;32;37383;-86
2023/03/26 02:47:56;;;;;;;2.42;1.87;;;;;;;9.15;52.34;99198.94;7605096;32;38964;-85
2023/03/26 02:52:15;;;;;;;2.65;1.60;;;;;;;9.21;52.08;99192.41;7604458;32;40840;-85
2023/03/26 02:56:32;;;;;;;2.85;1.50;;;;;;;9.39;51.64;99185.53;7604801;32;37733;-86
2023/03/26 03:00:49;;;;;;;1.50;1.40;;;;;;;9.28;52.03;99194.81;7604708;32;37139;-85
2023/03/26 03:05:07;;;;;;;3.22;1.70;;;;;;;9.40;51.61;99198.88;7604710;32;39300;-85
2023/03/26 03:09:23;;;;;;;1.52;1.42;;;;;;;9.37;51.64;99204.03;7604568;32;39670;-86
2023/03/26 03:13:40;;;;;;;5.18;1.50;;;;;;;8.92;52.39;99203.91;7620860;32;37755;-86
2023/03/26 03:17:57;;;;;;;2.05;1.60;;;;;;;9.08;52.21;99201.16;7630052;32;37019;-85
2023/03/26 03:22:13;;;;;;;2.00;1.67;;;;;;;8.88;53.13;99202.00;7630186;32;39113;-86
2023/03/26 03:26:29;;;;;;;3.33;1.50;;;;;;;8.99;52.64;99199.00;7630117;32;40049;-85
2023/03/26 03:30:46;;;;;;;1.58;1.48;;;;;;;8.97;52.46;99194.94;7630003;32;38592;-86
2023/03/26 03:35:02;;;;;;;1.87;1.73;;;;;;;8.96;52.56;99196.81;7629880;32;37149;-86
2023/03/26 03:39:18;;;;;;;2.25;1.70;;;;;;;8.85;52.79;99192.50;7630976;32;39883;-85
2023/03/26 03:43:35;;;;;;;1.70;1.58;;;;;;;8.82;52.95;99203.91;7633733;32;39593;-85
2023/03/26 03:47:52;;;;;;;2.70;1.40;;;;;;;8.72;53.18;99209.37;7633244;32;37885;-85
2023/03/26 03:52:08;;;;;;;1.60;1.50;;;;;;;8.64;53.65;99206.13;7633468;32;37118;-86
2023/03/26 03:56:24;;;;;;;1.60;1.50;;;;;;;8.43;54.05;99226.22;7619889;32;40121;-86
2023/03/26 04:00:43;;;;;;;2.72;1.60;;;;;;;8.59;53.59;99227.88;7633366;32;39572;-86
2023/03/26 04:05:01;;;;;;;1.70;1.60;;;;;;;8.54;53.55;99229.78;7633315;32;37734;-86
2023/03/26 04:09:17;;;;;;;2.50;1.65;;;;;;;8.63;53.42;99228.12;7633299;32;38047;-86
2023/03/26 04:13:33;;;;;;;2.85;1.40;;;;;;;8.63;53.07;99226.22;7632916;32;38768;-85
2023/03/26 04:17:50;;;;;;;2.45;1.52;;;;;;;8.64;52.83;99217.00;7633163;32;40773;-87
2023/03/26 04:22:08;;;;;;;3.10;1.70;;;;;;;8.74;52.55;99218.88;7633088;32;38465;-86
2023/03/26 04:26:24;;;;;;;1.40;1.30;;;;;;;8.92;51.84;99213.97;7633117;32;37873;-86
2023/03/26 04:30:41;;;;;;;1.83;1.50;;;;;;;8.84;51.96;99209.91;7631953;32;39242;-86
2023/03/26 04:34:59;;;;;;;1.60;1.50;;;;;;;8.90;51.53;99216.97;7632929;32;39672;-85
2023/03/26 04:39:15;;;;;;;2.97;1.50;;;;;;;8.88;51.58;99224.56;7631731;32;37610;-86
2023/03/26 04:43:34;;;;;;;1.83;1.40;;;;;;;9.05;51.35;99223.44;7632512;32;37034;-86
2023/03/26 04:47:50;;;;;;;2.87;1.60;;;;;;;9.11;51.08;99211.47;7632948;32;39519;-87
2023/03/26 04:52:09;;;;;;;1.50;1.40;;;;;;;9.30;50.77;99215.22;7632111;32;40638;-86
2023/03/26 04:56:43;;;;;;;1.60;1.50;;;;;;;9.01;51.80;99213.12;7631547;32;36803;-86
2023/03/26 05:01:04;;;;;;;1.80;1.70;;;;;;;9.37;50.91;99212.22;7631638;32;37675;-87
2023/03/26 05:05:26;;;;;;;3.50;1.73;;;;;;;9.18;51.12;99209.28;7632794;32;39143;-86
2023/03/26 05:09:43;;;;;;;2.45;1.80;;;;;;;9.31;50.72;99211.41;7632314;32;39609;-85
2023/03/26 05:13:59;;;;;;;3.40;1.58;;;;;;;9.35;50.65;99209.75;7632282;32;37570;-86
2023/03/26 05:18:15;;;;;;;1.98;1.60;;;;;;;9.25;50.79;99207.06;7632566;32;37246;-86
2023/03/26 05:22:32;;;;;;;2.33;1.60;;;;;;;9.43;50.51;99207.56;7632569;32;39402;-87
2023/03/26 05:26:51;;;;;;;1.67;1.50;;;;;;;9.46;50.67;99207.81;7632386;32;39952;-86
2023/03/26 05:31:08;;;;;;;1.40;1.40;;;;;;;9.71;50.33;99206.88;7631012;32;38401;-85
2023/03/26 05:35:25;;;;;;;1.85;1.60;;;;;;;9.78;50.29;99198.41;7632335;32;36918;-86
2023/03/26 05:39:42;;;;;;;1.80;1.70;;;;;;;9.93;49.92;99205.66;7632106;32;39277;-86
2023/03/26 05:43:59;;;;;;;1.45;1.33;;;;;;;9.97;50.08;99212.19;7631843;32;40726;-86
2023/03/26 05:48:16;;;;;;;1.62;1.50;;;;;;;9.92;50.33;99210.31;7632155;32;37971;-86
2023/03/26 05:52:34;;;;;;;2.70;1.62;;;;;;;10.04;50.12;99209.97;7632095;32;37850;-85
2023/03/26 05:56:51;;;;;;;1.73;1.60;;;;;;;10.28;50.74;99206.53;7631923;32;40204;-85
2023/03/26 06:01:15;;;;;;;2.60;1.80;;;;;;;10.52;50.00;99201.19;7631706;32;39908;-85
2023/03/26 06:05:36;;;;;;;3.22;1.50;;;;;;;10.60;49.42;99197.84;7631630;32;38710;-85
2023/03/26 06:09:53;;;;;;;2.17;1.70;;;;;;;10.56;49.60;99196.00;7631865;32;36856;-85
2023/03/26 06:14:10;;;;;;;3.60;1.80;;;;;;;10.59;48.65;99201.69;7631285;32;39484;-86
2023/03/26 06:18:27;;;;;;;2.22;1.42;;;;;;;10.65;48.75;99207.87;7631781;32;40624;-86
2023/03/26 06:22:43;;;;;;;3.40;1.77;;;;;;;10.69;48.27;99208.94;7631524;32;37700;-86
2023/03/26 06:26:59;;;;;;;1.50;1.40;;;;;;;10.74;47.56;99203.44;7617958;32;38025;-85
2023/03/26 06:31:17;;;;;;;2.45;1.60;;;;;;;10.52;47.67;99210.19;7631491;32;40080;-87
2023/03/26 06:35:34;;;;;;;3.12;1.50;;;;;;;11.11;46.67;99207.44;7631207;32;40394;-86
2023/03/26 06:39:50;;;;;;;1.55;1.45;;;;;;;10.81;46.88;99203.91;7631189;32;37849;-86
2023/03/26 06:44:06;;;;;;;2.83;1.60;;;;;;;11.14;46.99;99195.97;7629652;32;37045;-84
2023/03/26 06:48:23;;;;;;;2.47;1.65;;;;;;;10.88;48.04;99214.47;7611880;32;39022;-85
2023/03/26 06:52:39;;;;;;;4.03;1.50;;;;;;;10.52;48.15;99210.19;7630943;32;39860;-84
2023/03/26 06:56:56;;;;;;;1.65;1.20;;;;;;;11.13;47.25;99204.44;7630698;32;37897;-72
2023/03/26 07:01:12;;;;;;;3.33;1.70;;;;;;;11.03;47.71;99199.88;7630289;32;37459;-72
2023/03/26 07:05:29;;;;;;;1.48;1.37;;;;;;;11.81;46.57;99198.66;7630655;32;39361;-84
2023/03/26 07:09:46;;;;;;;2.92;1.55;;;;;;;11.54;46.44;99193.84;7630206;32;39684;-74
2023/03/26 07:14:03;;;;;;;2.95;1.40;;;;;;;11.73;48.44;99193.84;7632015;32;37904;-83
2023/03/26 07:18:19;;;;;;;1.85;1.20;;;;;;;11.92;46.22;99204.81;7633774;32;36866;-84
2023/03/26 07:22:36;;;;;;;2.03;1.48;;;;;;;11.90;46.75;99204.28;7633752;32;40217;-84
2023/03/26 07:27:15;;;;;;;4.25;1.48;;;;;;;12.47;44.96;99192.50;7633559;32;40021;-84
2023/03/26 07:31:55;;;;;;;4.18;1.60;;;;;;;12.17;46.32;99195.41;7625475;32;38000;-84
2023/03/26 07:36:23;;;;;;;1.65;1.23;;;;;;;12.85;44.79;99181.44;7633354;32;37709;-84
2023/03/26 07:40:48;;;;;;;2.28;1.23;;;;;;;12.89;44.34;99198.91;7633530;32;39375;-85
2023/03/26 07:45:32;;;;;;;2.70;1.85;;;;;;;12.98;43.88;99196.28;7633503;32;41062;-84
2023/03/26 07:49:49;;;;;;;2.42;1.17;;;;;;;12.55;44.36;99202.75;7633022;32;38650;-83
2023/03/26 07:54:07;;;;;;;3.35;1.27;;;;;;;12.35;44.98;99212.91;7632756;32;37790;-80
2023/03/26 07:58:45;;;;;;;2.62;1.12;;;;;;;12.14;44.48;99197.94;7633054;32;38816;-82
2023/03/26 08:03:20;;;;;;;1.50;1.30;;;;;;;12.35;43.37;99209.37;7632992;32;40960;-83
2023/03/26 08:08:01;;;;;;;2.53;1.30;;;;;;;12.71;43.85;99209.59;7632986;32;37574;-81
2023/03/26 08:12:23;;;;;;;2.85;1.45;;;;;;;12.03;44.71;99202.75;7631964;32;37771;-85
2023/03/26 08:16:50;;;;;;;2.80;1.52;;;;;;;11.83;46.06;99201.91;7618606;32;39266;-74
2023/03/26 08:21:16;;;;;;;4.10;1.55;;;;;;;11.72;47.25;99200.41;7630594;32;39992;-85
2023/03/26 08:25:33;;;;;;;2.55;1.45;;;;;;;11.48;47.13;99202.38;7631956;32;37926;-84
2023/03/26 08:30:16;;;;;;;3.17;1.45;;;;;;;11.99;46.40;99188.88;7633088;32;37413;-80
2023/03/26 08:34:32;;;;;;;1.50;1.40;;;;;;;11.84;46.49;99186.31;7631821;32;40172;-82
2023/03/26 08:38:49;;;;;;;4.40;1.60;;;;;;;12.51;46.21;99193.53;7632646;32;40780;-83
2023/03/26 08:43:31;;;;;;;1.35;1.25;;;;;;;12.33;45.61;99185.09;7632762;32;38657;-80
2023/03/26 08:48:09;;;;;;;3.37;1.70;;;;;;;12.52;45.58;99176.00;7631967;32;37074;-82
2023/03/26 08:52:43;;;;;;;3.33;1.35;;;;;;;12.36;45.93;99189.12;7632792;32;39430;-82
2023/03/26 08:56:59;;;;;;;;;;;;;;;12.70;44.61;99177.87;7632975;32;40847;-84
2023/03/26 09:01:33;;;;;;;2.70;1.20;;;;;;;12.83;43.75;99172.72;7632663;32;38182;-82
2023/03/26 09:06:21;;;;;;;2.53;1.40;;;;;;;12.67;44.46;99170.28;7632400;32;36981;-83
2023/03/26 09:11:05;;;;;;;2.17;1.27;;;;;;;13.01;43.35;99165.56;7632514;32;40196;-85
2023/03/26 09:15:45;;;;;;;1.65;1.40;;;;;;;12.44;45.14;99182.19;7631137;32;40710;-88
2023/03/26 09:20:40;;;;;;;2.03;1.23;;;;;;;12.93;43.24;99167.06;7631272;32;38649;-85
2023/03/26 09:24:59;;;;;;;4.03;1.40;;;;;;;12.49;44.75;99174.69;7629745;32;37020;-86
2023/03/26 09:29:46;;;;;;;2.65;1.25;;;;;;;12.87;43.83;99162.81;7632221;32;39481;-87
2023/03/26 09:34:06;;;;;;;2.25;1.60;;;;;;;13.04;43.48;99165.78;7631397;32;39837;-86
2023/03/26 09:38:42;;;;;;;1.70;1.10;;;;;;;13.46;42.79;99161.13;7616311;32;38868;-86
2023/03/26 09:43:26;;;;;;;1.52;1.20;;;;;;;13.19;42.67;99163.84;7616129;32;36954;-87
2023/03/26 09:47:51;;;;;;;2.17;1.50;;;;;;;12.66;42.68;99176.88;7631456;32;40141;-89
2023/03/26 09:52:39;;;;;;;2.60;1.30;;;;;;;12.73;43.42;99160.06;7631924;32;39860;-85
2023/03/26 09:57:22;;;;;;;2.92;1.77;;;;;;;12.46;43.04;99158.09;7631853;32;37689;-86
2023/03/26 10:02:10;;;;;;;2.75;1.62;;;;;;;12.99;43.05;99152.19;7630928;32;38030;-88
2023/03/26 10:06:59;;;;;;;2.65;1.30;;;;;;;13.11;43.65;99146.22;7631846;32;40050;-88
2023/03/26 10:11:33;;;;;;;5.50;1.33;;;;;;;13.42;43.45;99130.00;7615814;32;40707;-86
2023/03/26 10:16:30;;;;;;;4.55;1.50;;;;;;;14.24;40.71;99116.31;7631428;32;38581;-83
2023/03/26 10:21:13;;;;;;;3.42;1.27;;;;;;;14.58;39.85;99099.28;7630370;32;37040;-83
2023/03/26 10:25:38;;;;;;;2.25;1.35;;;;;;;14.39;39.48;99104.16;7630559;32;39920;-84
2023/03/26 10:30:06;;;;;;;3.35;1.50;;;;;;;14.38;39.21;99091.56;7631160;32;39857;-85
2023/03/26 10:34:45;;;;;;;3.60;1.40;;;;;;;14.93;38.10;99077.47;7605074;32;38661;-84
2023/03/26 10:39:14;;;;;;;4.22;1.62;;;;;;;15.69;37.70;99079.06;7605161;32;37035;-83
2023/03/26 10:44:22;;;;;;;2.55;1.30;;;;;;;16.48;35.57;99052.25;7594145;32;39633;-82
2023/03/26 10:48:51;;;;;;;2.47;0.90;;;;;;;16.66;35.20;99042.00;7600361;32;39927;-84
2023/03/26 10:53:33;;;;;;;2.12;1.10;;;;;;;16.88;33.50;99045.66;7630323;32;37758;-84
2023/03/26 10:57:53;;;;;;;2.30;0.98;;;;;;;17.45;32.69;99042.38;7626082;32;37687;-84
2023/03/26 11:02:24;;;;;;;3.30;1.20;;;;;;;17.21;33.23;99040.28;7629551;32;39171;-83
2023/03/26 11:07:59;;;;;;;2.37;1.15;;;;;;;16.88;33.96;99029.12;7612939;32;40618;-84
2023/03/26 11:12:24;;;;;;;3.62;1.37;;;;;;;17.11;32.32;99013.13;7491325;33;37971;-86
2023/03/26 11:17:06;;;;;;;3.30;0.98;;;;;;;17.48;31.53;99002.31;7581917;32;37626;-85
2023/03/26 11:21:32;;;;;;;2.58;1.10;;;;;;;17.62;32.07;98993.75;7616402;32;39250;-84
2023/03/26 11:26:06;;;;;;;2.22;1.08;;;;;;;17.90;31.02;98977.47;7630116;32;40758;-84
2023/03/26 11:30:44;;;;;;;1.52;0.80;;;;;;;18.69;30.05;98971.78;7623885;32;37824;-85
2023/03/26 11:35:08;;;;;;;3.12;1.10;;;;;;;19.18;28.34;98967.38;7608063;32;37240;-84
2023/03/26 11:39:31;;;;;;;;;;;;;;;19.85;26.96;98951.13;7628744;32;39361;-82
2023/03/26 11:44:10;;;;;;;;;;;;;;;19.41;29.08;98937.28;7630326;32;41000;-81
2023/03/26 11:48:56;;;;;;;0.85;0.68;;;;;;;18.74;27.14;98938.44;7629324;32;38132;-82
2023/03/26 11:53:18;;;;;;;0.85;0.65;;;;;;;19.10;27.86;98928.50;7628626;32;37049;-81
2023/03/26 11:57:35;;;;;;;1.50;0.90;;;;;;;19.54;24.90;98918.66;7628746;32;38535;-84
2023/03/26 12:02:15;;;;;;;3.12;0.90;;;;;;;19.07;25.81;98909.06;7633098;32;39949;-83
2023/03/26 12:06:31;;;;;;;1.55;0.90;;;;;;;18.94;27.19;98895.28;7620621;32;37631;-83
2023/03/26 12:11:00;;;;;;;2.15;1.05;;;;;;;20.30;24.20;98877.16;7633139;32;37052;-84
2023/03/26 12:15:18;;;;;;;2.42;0.90;;;;;;;19.75;25.63;98875.03;7632282;32;39437;-83
2023/03/26 12:19:38;;;;;;;4.15;1.10;;;;;;;20.41;24.69;98856.06;7631446;32;40300;-87
2023/03/26 12:23:55;;;;;;;1.52;0.85;;;;;;;20.59;24.62;98845.38;7632675;32;38852;-82
2023/03/26 12:28:16;;;;;;;1.35;0.80;;;;;;;20.79;24.95;98826.87;7632577;32;37802;-83
2023/03/26 12:32:39;;;;;;;1.87;1.00;;;;;;;19.62;24.94;98820.94;7633040;32;38647;-84
2023/03/26 12:37:03;;;;;;;0.77;0.77;;;;;;;19.77;26.37;98805.56;7631160;32;39932;-84
2023/03/26 12:41:32;;;;;;;1.42;0.90;;;;;;;18.64;26.48;98820.22;7631202;32;39442;-86
2023/03/26 12:46:25;;;;;;;1.33;0.60;;;;;;;18.91;26.44;98810.38;7631456;32;37341;-85
2023/03/26 12:51:13;;;;;;;1.30;0.90;;;;;;;18.92;26.80;98800.94;7631127;32;40721;-85
2023/03/26 12:56:02;;;;;;;1.62;0.80;;;;;;;18.00;27.76;98806.06;7632640;32;40694;-84
2023/03/26 13:00:19;;;;;;;1.80;1.10;;;;;;;17.79;27.66;98811.66;7631607;32;38558;-83
2023/03/26 13:04:44;;;;;;;1.60;0.75;;;;;;;18.05;27.43;98801.47;7632571;32;37104;-87
2023/03/26 13:10:12;;;;;;;0.80;0.80;;;;;;;17.98;26.83;98796.53;7632210;32;39981;-85
2023/03/26 13:14:37;;;;;;;6.00;1.20;;;;;;;17.07;28.10;98786.38;7631293;32;40983;-85
2023/03/26 13:18:58;;;;;;;1.33;0.82;;;;;;;17.90;27.12;98772.63;7631249;32;37664;-84
2023/03/26 13:23:25;;;;;;;2.53;1.00;;;;;;;17.53;27.52;98769.84;7626945;32;37112;-83
2023/03/26 13:27:47;;;;;;;5.22;1.08;;;;;;;18.00;26.64;98775.72;7600040;32;39728;-85
2023/03/26 13:32:29;;;;;;;1.87;0.82;;;;;;;17.88;27.19;98763.91;7628700;32;40597;-86
2023/03/26 13:37:17;;;;;;;1.62;0.70;;;;;;;17.26;27.47;98766.59;7628182;32;37666;-86
2023/03/26 13:41:48;;;;;;;2.35;0.98;;;;;;;17.97;26.52;98745.28;7630947;32;36787;-86
2023/03/26 13:46:19;;;;;;;0.85;0.85;;;;;;;17.63;28.05;98742.63;7631987;32;37905;-86
2023/03/26 13:50:40;;;;;;;1.80;1.20;;;;;;;17.96;27.24;98727.94;7630961;32;39942;-84
2023/03/26 13:55:24;;;;;;;10.40;4.73;;;;;;;17.56;26.87;98722.31;7608818;32;37924;-87
2023/03/26 13:59:44;;;;;;;1.12;0.80;;;;;;;17.32;28.05;98703.84;7631811;32;37151;-87
2023/03/26 14:04:33;;;;;;;0.73;0.73;;;;;;;16.82;30.00;98709.22;7630792;32;40227;-86
2023/03/26 14:09:03;;;;;;;2.08;0.70;;;;;;;16.59;27.72;98705.22;7618126;32;38718;-86
2023/03/26 14:13:25;;;;;;;1.05;0.68;;;;;;;16.44;29.12;98715.72;7630122;32;37473;-86
2023/03/26 14:17:57;;;;;;;0.80;0.80;;;;;;;16.09;29.64;98720.69;7631624;32;37698;-85
2023/03/26 14:22:43;;;;;;;3.92;0.98;;;;;;;17.18;29.42;98691.19;7630391;32;39271;-86
2023/03/26 14:27:35;;;;;;;1.83;0.88;;;;;;;17.44;28.11;98676.28;7629210;32;40848;-86
2023/03/26 14:32:16;;;;;;;0.88;0.82;;;;;;;17.82;27.32;98673.13;7617322;32;38582;-86
2023/03/26 14:36:42;;;;;;;1.23;0.70;;;;;;;18.11;25.63;98664.94;7630653;32;37430;-86
2023/03/26 14:41:26;;;;;;;0.85;0.60;;;;;;;17.81;25.75;98659.69;7630314;32;40044;-86
2023/03/26 14:45:48;;;;;;;1.10;0.80;;;;;;;17.31;26.35;98652.63;7630766;32;39904;-87
2023/03/26 14:50:34;;;;;;;1.15;0.80;;;;;;;17.85;26.37;98638.56;7630521;32;37847;-87
2023/03/26 14:54:54;;;;;;;0.60;0.60;;;;;;;17.82;25.89;98640.06;7630269;32;37105;-86
2023/03/26 14:59:32;;;;;;;0.95;0.73;;;;;;;16.75;26.11;98645.66;7629473;32;40620;-88
2023/03/26 15:04:00;;;;;;;0.77;0.70;;;;;;;17.07;25.73;98621.19;7626064;32;39924;-87
2023/03/26 15:08:36;;;;;;;3.28;0.62;;;;;;;17.04;25.73;98633.69;7629684;32;37381;-88
2023/03/26 15:13:11;;;;;;;0.55;0.52;;;;;;;16.57;25.77;98613.97;7629920;32;37229;-87
2023/03/26 15:17:51;;;;;;;1.00;0.80;;;;;;;16.53;25.83;98614.66;7629733;32;39923;-85
2023/03/26 15:22:46;;;;;;;0.70;0.55;;;;;;;16.74;24.80;98629.50;7617062;32;40037;-89
2023/03/26 15:27:27;;;;;;;0.70;0.70;;;;;;;17.51;24.59;98590.28;7628971;32;38614;-87
2023/03/26 15:32:10;;;;;;;0.70;0.60;;;;;;;17.58;24.57;98580.28;7628994;32;37748;-87
2023/03/26 15:36:46;;;;;;;1.85;0.70;;;;;;;16.90;25.35;98583.66;7631657;32;40142;-88
2023/03/26 15:41:08;;;;;;;1.00;0.75;;;;;;;16.61;24.78;98577.19;7620917;32;41087;-87
2023/03/26 15:45:33;;;;;;;0.60;0.60;;;;;;;16.48;25.96;98573.59;7632999;32;38794;-88
2023/03/26 15:50:14;;;;;;;1.58;0.95;;;;;;;16.35;27.32;98563.72;7633164;32;37736;-86
2023/03/26 15:54:56;;;;;;;1.37;0.90;;;;;;;16.31;27.88;98568.28;7632939;32;40148;-87
2023/03/26 15:59:32;;;;;;;1.23;0.82;;;;;;;16.29;27.56;98548.59;7624415;32;40844;-84
2023/03/26 16:04:13;;;;;;;0.62;0.62;;;;;;;16.36;27.69;98548.03;7621343;32;38815;-85
2023/03/26 16:08:59;;;;;;;0.98;0.90;;;;;;;16.56;27.63;98535.31;7628946;32;37124;-86
2023/03/26 16:13:30;;;;;;;1.15;0.80;;;;;;;16.32;28.12;98528.66;7632485;32;39298;-71
2023/03/26 16:18:10;;;;;;;1.00;0.90;;;;;;;16.09;28.76;98517.25;7632551;32;40017;-89
2023/03/26 16:22:58;;;;;;;1.27;0.88;;;;;;;15.72;29.47;98517.09;7633273;32;38606;-82
2023/03/26 16:27:14;;;;;;;2.45;1.10;;;;;;;15.94;29.21;98519.50;7632958;32;36568;-84
2023/03/26 16:31:35;;;;;;;1.02;0.80;;;;;;;16.24;29.20;98518.56;7632470;32;39260;-81
2023/03/26 16:36:12;;;;;;;4.35;1.30;;;;;;;16.51;28.64;98506.91;7633707;32;39995;-82
2023/03/26 16:40:49;;;;;;;1.00;0.90;;;;;;;16.50;28.81;98504.50;7632712;32;38721;-84
2023/03/26 16:45:17;;;;;;;3.72;1.37;;;;;;;16.76;28.21;98506.09;7631473;32;37842;-82
2023/03/26 16:50:03;;;;;;;3.15;1.70;;;;;;;16.60;28.86;98500.50;7633873;32;39226;-78
2023/03/26 16:54:54;;;;;;;4.57;2.35;;;;;;;16.64;28.77;98509.66;7639115;32;40198;-81
2023/03/26 16:59:48;;;;;;;4.00;1.60;;;;;;;16.81;28.16;98503.91;7631589;32;39040;-83
2023/03/26 17:04:29;;;;;;;3.90;1.50;;;;;;;16.76;28.27;98493.16;7632239;32;36848;-84
2023/03/26 17:08:56;;;;;;;2.75;1.42;;;;;;;16.84;28.49;98496.97;7632121;32;39131;-84
2023/03/26 17:13:24;;;;;;;4.78;1.40;;;;;;;16.68;28.55;98488.59;7630815;32;40905;-83
2023/03/26 17:18:00;;;;;;;2.15;1.30;;;;;;;16.99;28.21;98489.94;7629697;32;37905;-84
2023/03/26 17:22:19;;;;;;;3.75;1.30;;;;;;;17.11;28.29;98481.69;7632311;32;37911;-85
2023/03/26 17:26:38;;;;;;;1.23;1.10;;;;;;;17.21;28.03;98483.97;7632606;32;39131;-83
2023/03/26 17:31:14;;;;;;;3.25;1.40;;;;;;;17.02;28.48;98481.00;7632080;32;39913;-84
2023/03/26 17:35:45;;;;;;;3.08;1.27;;;;;;;16.98;28.60;98483.66;7630589;32;38654;-83
2023/03/26 17:40:08;;;;;;;4.82;1.87;;;;;;;17.00;28.62;98480.53;7631812;32;36585;-83
2023/03/26 17:44:40;;;;;;;3.67;2.22;;;;;;;16.96;29.03;98479.66;7631189;32;39565;-84
2023/03/26 17:49:03;;;;;;;4.72;2.08;;;;;;;16.83;29.08;98489.81;7631815;32;40008;-82
2023/03/26 17:53:22;;;;;;;;;;;;;;;16.71;29.56;98498.87;7632067;32;37983;-83
2023/03/26 17:57:45;;;;;;;7.43;2.78;;;;;;;16.69;29.46;98501.19;7628298;32;36964;-84
2023/03/26 18:02:04;;;;;;;3.25;2.15;;;;;;;16.53;29.91;98507.34;7614199;32;39092;-84
2023/03/26 18:06:52;;;;;;;6.05;2.03;;;;;;;16.51;29.91;98506.91;7630181;32;40910;-85
2023/03/26 18:11:30;;;;;;;3.75;1.90;;;;;;;16.42;30.03;98503.47;7606489;32;37761;-85
2023/03/26 18:15:55;;;;;;;5.15;2.20;;;;;;;16.30;30.07;98501.50;7631973;32;36958;-86
2023/03/26 18:20:25;;;;;;;3.85;1.90;;;;;;;16.37;29.62;98487.19;7631581;32;40128;-87
2023/03/26 18:24:43;;;;;;;2.65;1.42;;;;;;;16.50;29.60;98483.28;7631750;32;39923;-85
2023/03/26 18:29:27;;;;;;;3.00;1.50;;;;;;;16.37;29.57;98473.44;7629932;32;38627;-85
2023/03/26 18:33:48;;;;;;;2.20;1.33;;;;;;;16.53;29.47;98460.59;7631232;32;37844;-83
2023/03/26 18:38:10;;;;;;;4.20;1.30;;;;;;;16.40;30.03;98452.69;7631236;32;39413;-84
2023/03/26 18:42:28;;;;;;;1.92;1.45;;;;;;;16.43;30.34;98443.75;7631249;32;40005;-85
2023/03/26 18:46:44;;;;;;;3.92;1.70;;;;;;;16.39;29.88;98449.13;7629898;32;37938;-88
2023/03/26 18:51:06;;;;;;;4.03;1.73;;;;;;;16.48;30.28;98441.56;7630806;32;37126;-85
2023/03/26 18:55:25;;;;;;;2.15;1.45;;;;;;;16.51;29.59;98435.38;7630104;32;40143;-85
2023/03/26 18:59:44;;;;;;;2.72;1.40;;;;;;;16.49;29.67;98423.94;7630173;32;40056;-86
2023/03/26 19:04:04;;;;;;;2.72;1.48;;;;;;;16.44;29.66;98413.16;7616944;32;37999;-85
2023/03/26 19:08:22;;;;;;;4.72;1.58;;;;;;;16.47;29.87;98400.66;7623705;32;37422;-86
2023/03/26 19:12:38;;;;;;;1.83;1.30;;;;;;;16.30;30.67;98390.72;7632555;32;38012;-86
2023/03/26 19:16:59;;;;;;;2.65;1.37;;;;;;;16.18;31.02;98379.69;7633320;32;40839;-83
2023/03/26 19:21:17;;;;;;;2.40;1.50;;;;;;;16.26;31.01;98384.28;7634156;32;37978;-83
2023/03/26 19:25:48;;;;;;;2.78;1.58;;;;;;;16.43;31.03;98373.03;7634037;32;37791;-85
2023/03/26 19:30:06;;;;;;;4.72;2.00;;;;;;;16.47;31.06;98371.22;7634164;32;40214;-84
2023/03/26 19:34:34;;;;;;;1.55;1.25;;;;;;;15.98;33.45;98371.19;7633725;32;40025;-85
2023/03/26 19:38:59;;;;;;;2.08;1.35;;;;;;;16.20;31.60;98367.22;7632087;32;37945;-83
2023/03/26 19:43:16;;;;;;;2.05;1.45;;;;;;;16.16;31.94;98355.31;7633355;32;37774;-83
2023/03/26 19:47:40;;;;;;;2.80;1.60;;;;;;;16.24;31.81;98348.88;7632057;32;39818;-84
2023/03/26 19:52:14;;;;;;;4.47;1.77;;;;;;;16.27;31.63;98347.37;7632316;32;40620;-82
2023/03/26 19:56:30;;;;;;;3.28;1.30;;;;;;;16.36;31.97;98339.00;7619678;32;38111;-84
2023/03/26 20:00:46;;;;;;;4.40;2.00;;;;;;;16.34;31.56;98328.34;7632849;32;37038;-85
2023/03/26 20:05:03;;;;;;;4.43;1.98;;;;;;;16.62;31.30;98324.87;7633031;32;40512;-85
2023/03/26 20:09:20;;;;;;;6.62;2.78;;;;;;;16.65;30.56;98318.69;7632902;32;39888;-84
2023/03/26 20:13:38;;;;;;;2.17;1.67;;;;;;;16.41;32.75;98303.81;7626454;32;38033;-83
2023/03/26 20:17:54;;;;;;;4.45;1.70;;;;;;;16.04;33.49;98314.88;7632903;32;36969;-81
2023/03/26 20:22:15;;;;;;;4.07;1.60;;;;;;;16.20;33.67;98305.94;7632791;32;40119;-83
2023/03/26 20:26:32;;;;;;;2.60;1.40;;;;;;;16.10;34.43;98293.44;7632778;32;39917;-82
2023/03/26 20:30:49;;;;;;;4.18;1.33;;;;;;;15.94;34.79;98296.88;7632367;32;38773;-83
2023/03/26 20:35:15;;;;;;;2.00;1.27;;;;;;;15.91;34.82;98283.03;7632632;32;37278;-82
2023/03/26 20:39:31;;;;;;;3.15;1.73;;;;;;;15.86;34.84;98283.25;7632006;32;39047;-80
2023/03/26 20:43:49;;;;;;;2.50;1.50;;;;;;;14.26;39.37;98344.59;7631491;32;40746;-82
2023/03/26 20:48:09;;;;;;;1.80;1.25;;;;;;;14.42;41.33;98350.31;7629188;32;38598;-83
2023/03/26 20:52:27;;;;;;;2.87;1.12;;;;;;;14.06;46.89;98361.78;7632223;32;36838;-82
2023/03/26 20:56:44;;;;;;;1.67;1.08;;;;;;;13.78;51.30;98373.19;7632816;32;39083;-83
2023/03/26 21:01:01;;;;;;;1.50;1.02;;;;;;;13.29;53.43;98364.41;7632376;32;40797;-83